Time;durP1;ratioP1;P1;durP2;ratioP2;P2;SDS_P1;SDS_P2;PMS_P1;PMS_P2;Temp;Humidity;BMP_temperature;BMP_pressure;BME280_temperature;BME280_humidity;BME280_pressure;Samples;Min_cycle;Max_cycle;Signal;HPM_P1;HPM_P2
2023/05/07 00:00:22;;;;;;;11.83;10.77;;;;;;;;;;5073181;28;20453;-60
2023/05/07 00:02:50;;;;;;;12.57;11.13;;;;;;;;;;5072962;28;20490;-60
2023/05/07 00:05:18;;;;;;;13.40;11.97;;;;;;;;;;5073003;28;20534;-60
2023/05/07 00:07:44;;;;;;;12.57;11.20;;;;;;;;;;5072176;28;20430;-60
2023/05/07 00:10:12;;;;;;;12.90;11.60;;;;;;;;;;5073103;28;20440;-60
2023/05/07 00:12:39;;;;;;;14.83;11.17;;;;;;;;;;5072980;28;20454;-60
2023/05/07 00:15:07;;;;;;;12.10;10.97;;;;;;;;;;5073130;28;20443;-60
2023/05/07 00:17:34;;;;;;;12.53;10.60;;;;;;;;;;5072751;28;21034;-59
2023/05/07 00:20:03;;;;;;;13.17;11.87;;;;;;;;;;5072913;28;20424;-60
2023/05/07 00:22:30;;;;;;;19.67;11.60;;;;;;;;;;5072669;28;20483;-60
2023/05/07 00:24:57;;;;;;;14.90;11.80;;;;;;;;;;5072876;28;20455;-60
2023/05/07 00:27:24;;;;;;;11.47;10.37;;;;;;;;;;5073101;28;20418;-60
2023/05/07 00:29:51;;;;;;;12.13;10.83;;;;;;;;;;5072865;28;20465;-60
2023/05/07 00:32:17;;;;;;;11.50;10.50;;;;;;;;;;5072964;28;20452;-60
2023/05/07 00:34:44;;;;;;;11.23;10.00;;;;;;;;;;5072689;28;20510;-60
2023/05/07 00:37:13;;;;;;;11.10;10.17;;;;;;;;;;5072631;28;20517;-60
2023/05/07 00:39:39;;;;;;;11.87;10.00;;;;;;;;;;5072446;28;20454;-59
2023/05/07 00:42:07;;;;;;;11.90;10.70;;;;;;;;;;5072228;28;20488;-60
2023/05/07 00:44:34;;;;;;;10.17;9.17;;;;;;;;;;5072635;28;20827;-59
2023/05/07 00:47:03;;;;;;;10.87;9.77;;;;;;;;;;5072568;28;20448;-59
2023/05/07 00:49:34;;;;;;;10.73;9.70;;;;;;;;;;5072444;28;20452;-59
2023/05/07 00:52:01;;;;;;;11.13;10.03;;;;;;;;;;5072410;28;20480;-60
2023/05/07 00:54:29;;;;;;;12.90;10.40;;;;;;;;;;5072307;28;20453;-59
2023/05/07 00:56:56;;;;;;;11.73;10.40;;;;;;;;;;5072502;28;20483;-59
2023/05/07 00:59:23;;;;;;;13.10;11.50;;;;;;;;;;5072458;28;20538;-59
2023/05/07 01:01:50;;;;;;;11.20;10.00;;;;;;;;;;5072072;28;20975;-59
2023/05/07 01:04:17;;;;;;;12.40;11.20;;;;;;;;;;5072285;28;20543;-60
2023/05/07 01:06:45;;;;;;;16.47;12.27;;;;;;;;;;5072177;28;20460;-59
2023/05/07 01:09:14;;;;;;;12.73;11.43;;;;;;;;;;5072407;28;20430;-60
2023/05/07 01:11:42;;;;;;;11.70;10.50;;;;;;;;;;5072356;28;20444;-59
2023/05/07 01:14:10;;;;;;;10.80;9.70;;;;;;;;;;5072379;28;20858;-59
2023/05/07 01:16:38;;;;;;;11.17;10.17;;;;;;;;;;5072235;28;20547;-59
2023/05/07 01:19:05;;;;;;;12.00;10.63;;;;;;;;;;5072809;28;20792;-60
2023/05/07 01:21:34;;;;;;;11.90;10.73;;;;;;;;;;5075821;28;20542;-60
2023/05/07 01:24:03;;;;;;;11.63;10.50;;;;;;;;;;5075937;28;20458;-60
2023/05/07 01:26:30;;;;;;;11.97;10.73;;;;;;;;;;5075908;28;20517;-60
2023/05/07 01:28:57;;;;;;;12.80;10.60;;;;;;;;;;5075719;28;20455;-60
2023/05/07 01:31:25;;;;;;;10.03;9.00;;;;;;;;;;5075752;28;20514;-60
2023/05/07 01:33:53;;;;;;;12.30;11.10;;;;;;;;;;5075534;28;20478;-60
2023/05/07 01:36:22;;;;;;;12.40;10.37;;;;;;;;;;5075640;28;20548;-60
2023/05/07 01:38:49;;;;;;;14.00;11.20;;;;;;;;;;5075847;28;20558;-60
2023/05/07 01:41:18;;;;;;;12.13;10.90;;;;;;;;;;5075178;28;20946;-59
2023/05/07 01:43:45;;;;;;;12.30;11.07;;;;;;;;;;5075439;28;20570;-59
2023/05/07 01:46:12;;;;;;;12.17;10.80;;;;;;;;;;5075319;28;20509;-60
2023/05/07 01:48:40;;;;;;;12.63;11.33;;;;;;;;;;5075576;28;20547;-60
2023/05/07 01:51:07;;;;;;;11.60;10.60;;;;;;;;;;5075503;28;20444;-60
2023/05/07 01:53:37;;;;;;;12.50;11.20;;;;;;;;;;5075393;28;20539;-59
2023/05/07 01:56:04;;;;;;;12.30;11.20;;;;;;;;;;5075428;28;20459;-60
2023/05/07 01:58:32;;;;;;;13.77;12.37;;;;;;;;;;5075230;28;20814;-59
2023/05/07 02:00:59;;;;;;;13.23;11.70;;;;;;;;;;5075187;28;20444;-59
2023/05/07 02:03:26;;;;;;;12.73;11.60;;;;;;;;;;5075429;28;20483;-60
2023/05/07 02:05:53;;;;;;;14.50;12.30;;;;;;;;;;5075189;28;20443;-60
2023/05/07 02:08:20;;;;;;;12.07;10.87;;;;;;;;;;5075175;28;20535;-60
2023/05/07 02:10:47;;;;;;;13.47;11.70;;;;;;;;;;5075033;28;20448;-59
2023/05/07 02:13:14;;;;;;;10.93;9.97;;;;;;;;;;5074873;28;20448;-60
2023/05/07 02:15:42;;;;;;;13.80;11.67;;;;;;;;;;5074819;28;20542;-60
2023/05/07 02:18:10;;;;;;;11.50;10.30;;;;;;;;;;5075007;28;20491;-60
2023/05/07 02:20:37;;;;;;;13.57;12.17;;;;;;;;;;5074749;28;20462;-60
2023/05/07 02:23:04;;;;;;;12.43;11.17;;;;;;;;;;5074710;28;20479;-60
2023/05/07 02:25:31;;;;;;;14.13;11.57;;;;;;;;;;5074755;28;20454;-60
2023/05/07 02:27:58;;;;;;;12.20;10.90;;;;;;;;;;5074631;28;20535;-60
2023/05/07 02:30:25;;;;;;;13.40;12.10;;;;;;;;;;5074341;28;20458;-60
2023/05/07 02:32:54;;;;;;;14.60;12.40;;;;;;;;;;5074644;28;20443;-59
2023/05/07 02:35:21;;;;;;;12.50;11.07;;;;;;;;;;5074631;28;20425;-60
2023/05/07 02:37:47;;;;;;;11.37;10.30;;;;;;;;;;5074596;28;20788;-60
2023/05/07 02:40:14;;;;;;;12.30;11.20;;;;;;;;;;5074428;28;20543;-60
2023/05/07 02:42:41;;;;;;;12.23;11.00;;;;;;;;;;5074326;28;20475;-59
2023/05/07 02:45:09;;;;;;;19.40;11.37;;;;;;;;;;5074613;28;20448;-60
2023/05/07 02:47:36;;;;;;;12.50;11.17;;;;;;;;;;5074427;28;20455;-60
2023/05/07 02:50:04;;;;;;;13.30;11.83;;;;;;;;;;5074429;28;20542;-59
2023/05/07 02:52:31;;;;;;;12.40;11.20;;;;;;;;;;5074322;28;20459;-60
2023/05/07 02:54:58;;;;;;;15.30;11.53;;;;;;;;;;5074142;28;20444;-60
2023/05/07 02:57:25;;;;;;;13.80;12.00;;;;;;;;;;5074452;28;20543;-61
2023/05/07 02:59:52;;;;;;;12.03;10.83;;;;;;;;;;5074241;28;20523;-60
2023/05/07 03:02:20;;;;;;;17.30;11.87;;;;;;;;;;5074137;28;20505;-60
2023/05/07 03:04:46;;;;;;;12.90;11.30;;;;;;;;;;5074078;28;20452;-60
2023/05/07 03:07:15;;;;;;;13.60;12.30;;;;;;;;;;5074002;28;20530;-60
2023/05/07 03:09:42;;;;;;;14.00;12.30;;;;;;;;;;5074198;28;20456;-60
2023/05/07 03:12:09;;;;;;;15.07;10.60;;;;;;;;;;5074158;28;20518;-60
2023/05/07 03:14:36;;;;;;;12.60;11.47;;;;;;;;;;5074006;28;20803;-60
2023/05/07 03:17:02;;;;;;;13.50;12.10;;;;;;;;;;5074024;28;20538;-59
2023/05/07 03:19:30;;;;;;;13.60;12.20;;;;;;;;;;5073819;28;20452;-60
2023/05/07 03:21:57;;;;;;;12.77;11.37;;;;;;;;;;5073698;28;20820;-61
2023/05/07 03:24:25;;;;;;;11.60;10.60;;;;;;;;;;5073545;28;20483;-60
2023/05/07 03:26:52;;;;;;;11.70;10.70;;;;;;;;;;5073711;28;20528;-60
2023/05/07 03:29:19;;;;;;;11.67;10.50;;;;;;;;;;5073910;28;20444;-60
2023/05/07 03:31:46;;;;;;;12.50;11.40;;;;;;;;;;5073561;28;20454;-60
2023/05/07 03:34:13;;;;;;;12.77;10.60;;;;;;;;;;5073768;28;20547;-60
2023/05/07 03:36:40;;;;;;;12.97;10.83;;;;;;;;;;5073404;28;20751;-60
2023/05/07 03:39:07;;;;;;;13.00;11.37;;;;;;;;;;5073599;28;20447;-60
2023/05/07 03:41:35;;;;;;;10.87;9.80;;;;;;;;;;5073209;28;20906;-59
2023/05/07 03:44:02;;;;;;;13.97;10.60;;;;;;;;;;5073335;28;20566;-60
2023/05/07 03:46:29;;;;;;;11.83;10.70;;;;;;;;;;5073319;28;20499;-60
2023/05/07 03:48:56;;;;;;;10.60;9.60;;;;;;;;;;5073255;28;20543;-60
2023/05/07 03:51:22;;;;;;;11.50;10.33;;;;;;;;;;5073131;28;20981;-60
2023/05/07 03:53:52;;;;;;;10.87;9.87;;;;;;;;;;5073305;28;20422;-60
2023/05/07 03:56:19;;;;;;;10.77;9.73;;;;;;;;;;5073264;28;20872;-60
2023/05/07 03:58:48;;;;;;;11.57;10.43;;;;;;;;;;5073166;28;20802;-60
2023/05/07 04:01:15;;;;;;;14.00;10.10;;;;;;;;;;5073209;28;20863;-59
2023/05/07 04:03:42;;;;;;;11.00;9.43;;;;;;;;;;5072871;28;20484;-60
2023/05/07 04:06:10;;;;;;;12.77;11.47;;;;;;;;;;5072935;28;21001;-59
2023/05/07 04:08:37;;;;;;;11.40;9.87;;;;;;;;;;5073148;28;20475;-60
2023/05/07 04:11:04;;;;;;;11.33;10.20;;;;;;;;;;5073052;28;20456;-59
2023/05/07 04:13:31;;;;;;;12.43;11.00;;;;;;;;;;5072854;28;21010;-60
2023/05/07 04:15:59;;;;;;;11.10;10.10;;;;;;;;;;5072863;28;20535;-60
2023/05/07 04:18:26;;;;;;;11.67;10.47;;;;;;;;;;5072756;28;20470;-59
2023/05/07 04:20:53;;;;;;;10.63;9.63;;;;;;;;;;5073017;28;20505;-59
2023/05/07 04:23:20;;;;;;;13.33;10.83;;;;;;;;;;5072701;28;21033;-59
2023/05/07 04:25:47;;;;;;;11.27;10.17;;;;;;;;;;5073023;28;20448;-59
2023/05/07 04:28:14;;;;;;;10.73;9.73;;;;;;;;;;5072848;28;20451;-60
2023/05/07 04:30:41;;;;;;;11.37;9.33;;;;;;;;;;5072965;28;20454;-60
2023/05/07 04:33:10;;;;;;;11.70;9.43;;;;;;;;;;5072720;28;20441;-60
2023/05/07 04:35:37;;;;;;;10.47;9.57;;;;;;;;;;5072816;28;20451;-60
2023/05/07 04:38:04;;;;;;;10.50;9.50;;;;;;;;;;5073054;28;20472;-60
2023/05/07 04:40:31;;;;;;;14.60;10.40;;;;;;;;;;5072565;28;20463;-60
2023/05/07 04:42:58;;;;;;;9.80;8.90;;;;;;;;;;5072461;28;20538;-60
2023/05/07 04:45:24;;;;;;;9.37;8.47;;;;;;;;;;5072396;28;20542;-59
2023/05/07 04:47:51;;;;;;;10.20;8.87;;;;;;;;;;5072368;28;21019;-60
2023/05/07 04:50:20;;;;;;;9.97;8.97;;;;;;;;;;5072590;28;20491;-59
2023/05/07 04:52:47;;;;;;;13.67;9.30;;;;;;;;;;5072470;28;20958;-59
2023/05/07 04:55:14;;;;;;;10.60;9.60;;;;;;;;;;5075149;28;20671;-60
2023/05/07 04:57:41;;;;;;;10.53;9.53;;;;;;;;;;5076328;28;20535;-59
2023/05/07 05:00:08;;;;;;;10.73;9.73;;;;;;;;;;5076486;28;20426;-59
2023/05/07 05:02:36;;;;;;;11.37;10.20;;;;;;;;;;5076420;28;20456;-60
2023/05/07 05:05:02;;;;;;;10.20;9.20;;;;;;;;;;5076212;28;20885;-60
2023/05/07 05:07:31;;;;;;;9.50;8.70;;;;;;;;;;5076190;28;20447;-59
2023/05/07 05:09:58;;;;;;;11.20;8.60;;;;;;;;;;5076103;28;21058;-60
2023/05/07 05:12:25;;;;;;;9.90;8.90;;;;;;;;;;5075944;28;20454;-60
2023/05/07 05:14:52;;;;;;;9.83;8.07;;;;;;;;;;5076058;28;20535;-60
2023/05/07 05:17:19;;;;;;;8.40;7.60;;;;;;;;;;5076079;28;20542;-60
2023/05/07 05:19:45;;;;;;;9.43;8.57;;;;;;;;;;5076044;28;20496;-59
2023/05/07 05:22:12;;;;;;;8.90;8.10;;;;;;;;;;5075934;28;20448;-60
2023/05/07 05:24:41;;;;;;;14.10;8.60;;;;;;;;;;5075747;28;21034;-60
2023/05/07 05:27:08;;;;;;;9.00;8.20;;;;;;;;;;5075751;28;20530;-59
2023/05/07 05:29:34;;;;;;;10.20;9.20;;;;;;;;;;5075924;28;20513;-60
2023/05/07 05:32:01;;;;;;;10.43;9.10;;;;;;;;;;5075868;28;20479;-59
2023/05/07 05:34:28;;;;;;;11.47;8.13;;;;;;;;;;5075726;28;20521;-60
2023/05/07 05:36:56;;;;;;;8.50;7.67;;;;;;;;;;5075470;28;20505;-60
2023/05/07 05:39:23;;;;;;;9.63;8.73;;;;;;;;;;5075473;28;20451;-60
2023/05/07 05:41:51;;;;;;;10.83;7.73;;;;;;;;;;5075465;28;21066;-60
2023/05/07 05:44:18;;;;;;;9.73;7.97;;;;;;;;;;5075767;28;20826;-60
2023/05/07 05:46:45;;;;;;;8.70;7.80;;;;;;;;;;5075503;28;20537;-60
2023/05/07 05:49:12;;;;;;;7.93;7.23;;;;;;;;;;5075454;28;20454;-60
2023/05/07 05:51:39;;;;;;;9.43;8.53;;;;;;;;;;5075481;28;20534;-60
2023/05/07 05:54:06;;;;;;;8.63;7.93;;;;;;;;;;5075239;28;20458;-60
2023/05/07 05:56:33;;;;;;;9.80;8.80;;;;;;;;;;5075438;28;20618;-60
2023/05/07 05:59:01;;;;;;;9.03;8.17;;;;;;;;;;5075346;28;20450;-60
2023/05/07 06:01:28;;;;;;;8.73;8.00;;;;;;;;;;5075275;28;21124;-60
2023/05/07 06:03:55;;;;;;;8.23;7.47;;;;;;;;;;5075120;28;20479;-60
2023/05/07 06:06:22;;;;;;;8.03;7.23;;;;;;;;;;5073918;28;20539;-60
2023/05/07 06:08:49;;;;;;;8.10;7.40;;;;;;;;;;5075154;28;20543;-60
2023/05/07 06:11:16;;;;;;;10.80;8.00;;;;;;;;;;5075276;28;20539;-60
2023/05/07 06:13:43;;;;;;;8.63;7.73;;;;;;;;;;5075133;28;20542;-60
2023/05/07 06:16:11;;;;;;;7.93;7.33;;;;;;;;;;5075047;28;20544;-59
2023/05/07 06:18:38;;;;;;;8.50;7.70;;;;;;;;;;5075086;28;20454;-60
2023/05/07 06:21:05;;;;;;;9.07;8.17;;;;;;;;;;5074728;28;20852;-60
2023/05/07 06:23:32;;;;;;;9.07;8.20;;;;;;;;;;5074637;28;20558;-60
2023/05/07 06:25:59;;;;;;;9.70;8.80;;;;;;;;;;5074799;28;20563;-59
2023/05/07 06:28:26;;;;;;;10.50;8.20;;;;;;;;;;5074762;28;20544;-59
2023/05/07 06:30:53;;;;;;;10.23;8.47;;;;;;;;;;5074578;28;20521;-60
2023/05/07 06:33:21;;;;;;;8.53;7.30;;;;;;;;;;5074490;28;20539;-60
2023/05/07 06:35:48;;;;;;;8.37;7.57;;;;;;;;;;5074419;28;20454;-60
2023/05/07 06:38:15;;;;;;;9.57;7.23;;;;;;;;;;5074672;28;20803;-60
2023/05/07 06:40:41;;;;;;;7.70;6.90;;;;;;;;;;5074405;28;20570;-60
2023/05/07 06:43:08;;;;;;;8.33;7.20;;;;;;;;;;5074510;28;20538;-60
2023/05/07 06:45:35;;;;;;;7.07;6.40;;;;;;;;;;5074334;28;20562;-60
2023/05/07 06:48:03;;;;;;;7.00;6.40;;;;;;;;;;5074536;28;20454;-60
2023/05/07 06:50:31;;;;;;;7.93;6.50;;;;;;;;;;5074102;28;20574;-60
2023/05/07 06:52:58;;;;;;;6.93;6.37;;;;;;;;;;5074358;28;20535;-60
2023/05/07 06:55:24;;;;;;;6.47;5.97;;;;;;;;;;5074475;28;20547;-60
2023/05/07 06:57:51;;;;;;;6.27;5.67;;;;;;;;;;5074149;28;20924;-59
2023/05/07 07:00:19;;;;;;;6.50;6.00;;;;;;;;;;5074129;28;20448;-59
2023/05/07 07:02:45;;;;;;;6.43;5.83;;;;;;;;;;5073865;28;20539;-59
2023/05/07 07:05:12;;;;;;;7.20;6.50;;;;;;;;;;5073737;28;20963;-59
2023/05/07 07:07:41;;;;;;;5.20;4.80;;;;;;;;;;5074042;28;20447;-59
2023/05/07 07:10:08;;;;;;;6.33;5.73;;;;;;;;;;5074185;28;20446;-60
2023/05/07 07:12:35;;;;;;;6.40;5.80;;;;;;;;;;5073830;28;20599;-60
2023/05/07 07:15:02;;;;;;;8.70;5.47;;;;;;;;;;5073640;28;20444;-59
2023/05/07 07:17:29;;;;;;;8.23;5.80;;;;;;;;;;5073195;28;20451;-59
2023/05/07 07:19:56;;;;;;;5.83;5.33;;;;;;;;;;5073863;28;20530;-60
2023/05/07 07:22:23;;;;;;;5.50;5.10;;;;;;;;;;5073778;28;20444;-60
2023/05/07 07:24:51;;;;;;;6.47;5.40;;;;;;;;;;5073624;28;20495;-59
2023/05/07 07:27:18;;;;;;;5.50;5.00;;;;;;;;;;5073576;28;20454;-60
2023/05/07 07:29:45;;;;;;;5.40;4.90;;;;;;;;;;5073481;28;20455;-60
2023/05/07 07:32:12;;;;;;;4.70;4.30;;;;;;;;;;5073299;28;20474;-59
2023/05/07 07:34:38;;;;;;;5.33;4.93;;;;;;;;;;5073528;28;20447;-60
2023/05/07 07:37:06;;;;;;;5.00;4.60;;;;;;;;;;5073316;28;20809;-59
2023/05/07 07:39:33;;;;;;;5.33;4.90;;;;;;;;;;5073158;28;20454;-60
2023/05/07 07:42:01;;;;;;;4.93;4.40;;;;;;;;;;5073282;28;20480;-60
2023/05/07 07:44:28;;;;;;;5.30;4.90;;;;;;;;;;5073092;28;21039;-60
2023/05/07 07:46:55;;;;;;;5.10;4.70;;;;;;;;;;5073154;28;20461;-60
2023/05/07 07:49:22;;;;;;;4.70;4.30;;;;;;;;;;5073533;28;20448;-60
2023/05/07 07:51:49;;;;;;;5.30;4.80;;;;;;;;;;5073317;28;20785;-60
2023/05/07 07:54:16;;;;;;;4.90;4.50;;;;;;;;;;5073159;28;20448;-60
2023/05/07 07:56:43;;;;;;;4.83;4.43;;;;;;;;;;5073091;28;20466;-60
2023/05/07 07:59:11;;;;;;;5.13;4.10;;;;;;;;;;5072941;28;20448;-60
2023/05/07 08:01:38;;;;;;;3.73;3.43;;;;;;;;;;5073198;28;20457;-60
2023/05/07 08:04:05;;;;;;;5.07;4.10;;;;;;;;;;5073061;28;20494;-60
2023/05/07 08:06:32;;;;;;;4.60;4.03;;;;;;;;;;5072950;28;20448;-60
2023/05/07 08:08:59;;;;;;;4.17;3.80;;;;;;;;;;5072854;28;20811;-60
2023/05/07 08:11:26;;;;;;;5.70;5.20;;;;;;;;;;5072818;28;20543;-60
2023/05/07 08:13:53;;;;;;;3.40;3.10;;;;;;;;;;5072691;28;20450;-59
2023/05/07 08:16:21;;;;;;;3.47;3.23;;;;;;;;;;5072942;28;20454;-60
2023/05/07 08:18:48;;;;;;;3.63;3.33;;;;;;;;;;5072854;28;20931;-60
2023/05/07 08:21:15;;;;;;;3.53;3.10;;;;;;;;;;5072777;28;20447;-60
2023/05/07 08:23:42;;;;;;;2.90;2.63;;;;;;;;;;5073084;28;20452;-60
2023/05/07 08:26:09;;;;;;;2.90;2.70;;;;;;;;;;5072598;28;21001;-60
2023/05/07 08:28:36;;;;;;;4.57;3.17;;;;;;;;;;5072245;28;20446;-60
2023/05/07 08:31:03;;;;;;;3.17;2.97;;;;;;;;;;5072888;28;20481;-60
2023/05/07 08:33:31;;;;;;;4.93;4.07;;;;;;;;;;5072760;28;20810;-60
2023/05/07 08:35:58;;;;;;;2.60;2.40;;;;;;;;;;5072885;28;20462;-60
2023/05/07 08:38:25;;;;;;;2.80;2.33;;;;;;;;;;5072671;28;20452;-60
2023/05/07 08:40:52;;;;;;;2.67;2.50;;;;;;;;;;5072376;28;20480;-60
2023/05/07 08:43:20;;;;;;;4.03;3.30;;;;;;;;;;5072788;28;20454;-60
2023/05/07 08:45:47;;;;;;;3.93;2.73;;;;;;;;;;5072680;28;20491;-60
2023/05/07 08:48:16;;;;;;;2.77;2.50;;;;;;;;;;5072771;28;20810;-60
2023/05/07 08:50:44;;;;;;;4.23;2.70;;;;;;;;;;5072892;28;20448;-60
2023/05/07 08:53:11;;;;;;;2.80;2.60;;;;;;;;;;5072961;28;20454;-61
2023/05/07 08:55:39;;;;;;;4.17;2.90;;;;;;;;;;5072435;28;20455;-60
2023/05/07 08:58:06;;;;;;;6.00;2.70;;;;;;;;;;5072708;28;20464;-60
2023/05/07 09:00:34;;;;;;;4.53;2.70;;;;;;;;;;5072587;28;20806;-60
2023/05/07 09:03:01;;;;;;;2.80;2.60;;;;;;;;;;5072540;28;20534;-60
2023/05/07 09:05:28;;;;;;;2.43;2.07;;;;;;;;;;5072412;28;20483;-60
2023/05/07 09:07:56;;;;;;;2.33;2.13;;;;;;;;;;5072172;28;20530;-60
2023/05/07 09:10:23;;;;;;;2.30;2.20;;;;;;;;;;5072533;28;20448;-60
2023/05/07 09:12:50;;;;;;;2.97;2.53;;;;;;;;;;5072574;28;20960;-60
2023/05/07 09:15:17;;;;;;;2.70;2.50;;;;;;;;;;5072589;28;20447;-60
2023/05/07 09:17:44;;;;;;;3.20;3.00;;;;;;;;;;5072395;28;20494;-60
2023/05/07 09:20:12;;;;;;;2.63;2.43;;;;;;;;;;5072320;28;20807;-60
2023/05/07 09:22:39;;;;;;;3.93;3.33;;;;;;;;;;5072127;28;20450;-60
2023/05/07 09:25:07;;;;;;;3.00;2.53;;;;;;;;;;5072283;28;20843;-60
2023/05/07 09:27:34;;;;;;;5.63;2.90;;;;;;;;;;5072096;28;20455;-60
2023/05/07 09:30:04;;;;;;;2.57;2.37;;;;;;;;;;5072365;28;20490;-60
2023/05/07 09:32:31;;;;;;;3.13;2.87;;;;;;;;;;5072254;28;20526;-60
2023/05/07 09:34:58;;;;;;;2.40;2.20;;;;;;;;;;5072282;28;20448;-60
2023/05/07 09:37:27;;;;;;;2.93;2.20;;;;;;;;;;5072302;28;20444;-60
2023/05/07 09:39:54;;;;;;;3.83;2.50;;;;;;;;;;5072551;28;21034;-61
2023/05/07 09:42:26;;;;;;;2.43;1.93;;;;;;;;;;5075762;28;20803;-60
2023/05/07 09:44:53;;;;;;;1.90;1.80;;;;;;;;;;5075523;28;21009;-60
2023/05/07 09:47:21;;;;;;;1.93;1.73;;;;;;;;;;5075594;28;20448;-60
2023/05/07 09:49:48;;;;;;;1.93;1.83;;;;;;;;;;5075436;28;20820;-60
2023/05/07 09:52:16;;;;;;;1.83;1.73;;;;;;;;;;5075600;28;20452;-60
2023/05/07 09:54:44;;;;;;;2.33;2.13;;;;;;;;;;5075447;28;20455;-60
2023/05/07 09:57:12;;;;;;;2.13;2.03;;;;;;;;;;5075419;28;20897;-60
2023/05/07 09:59:42;;;;;;;1.70;1.60;;;;;;;;;;5075249;28;21007;-60
2023/05/07 10:02:11;;;;;;;1.60;1.50;;;;;;;;;;5075228;28;20453;-60
2023/05/07 10:04:38;;;;;;;2.07;1.70;;;;;;;;;;5075312;28;20823;-60
2023/05/07 10:07:06;;;;;;;1.80;1.70;;;;;;;;;;5075276;28;20474;-60
2023/05/07 10:09:34;;;;;;;1.50;1.40;;;;;;;;;;5075229;28;20454;-60
2023/05/07 10:12:01;;;;;;;2.57;1.70;;;;;;;;;;5075151;28;20455;-60
2023/05/07 10:14:29;;;;;;;1.67;1.57;;;;;;;;;;5075049;28;20878;-60
2023/05/07 10:16:58;;;;;;;3.23;1.60;;;;;;;;;;5075180;28;20536;-60
2023/05/07 10:19:25;;;;;;;1.70;1.60;;;;;;;;;;5075162;28;20879;-60
2023/05/07 10:21:56;;;;;;;1.93;1.80;;;;;;;;;;5075059;28;20449;-60
2023/05/07 10:24:26;;;;;;;1.70;1.43;;;;;;;;;;5075008;28;20880;-60
2023/05/07 10:26:54;;;;;;;2.03;1.80;;;;;;;;;;5074730;28;20486;-60
2023/05/07 10:29:26;;;;;;;2.00;1.90;;;;;;;;;;5074646;28;20547;-60
2023/05/07 10:31:56;;;;;;;1.93;1.57;;;;;;;;;;5074927;28;20803;-60
2023/05/07 10:34:27;;;;;;;3.57;1.70;;;;;;;;;;5074730;28;20811;-60
2023/05/07 10:36:55;;;;;;;2.43;1.93;;;;;;;;;;5074752;28;20544;-60
2023/05/07 10:39:22;;;;;;;6.70;2.10;;;;;;;;;;5074562;28;20466;-60
2023/05/07 10:41:49;;;;;;;5.93;1.80;;;;;;;;;;5074293;28;20476;-60
2023/05/07 10:44:27;;;;;;;3.07;1.97;;;;;;;;;;5074590;28;20535;-60
2023/05/07 10:47:08;;;;;;;2.70;2.27;;;;;;;;;;5074329;28;20487;-60
2023/05/07 10:49:37;;;;;;;1.77;1.67;;;;;;;;;;5074125;28;20448;-60
2023/05/07 10:52:14;;;;;;;1.70;1.60;;;;;;;;;;5073544;28;20445;-60
2023/05/07 10:54:41;;;;;;;1.70;1.60;;;;;;;;;;5074368;28;20454;-60
2023/05/07 10:57:27;;;;;;;2.77;2.00;;;;;;;;;;5074107;28;20448;-60
2023/05/07 10:59:53;;;;;;;2.27;1.77;;;;;;;;;;5074079;28;20966;-60
2023/05/07 11:02:20;;;;;;;1.90;1.80;;;;;;;;;;5074162;28;20494;-60
2023/05/07 11:05:09;;;;;;;1.83;1.73;;;;;;;;;;5073899;28;20848;-60
2023/05/07 11:07:37;;;;;;;2.03;1.93;;;;;;;;;;5074113;28;20452;-60
2023/05/07 11:10:05;;;;;;;1.70;1.60;;;;;;;;;;5074006;28;20532;-60
2023/05/07 11:12:51;;;;;;;1.60;1.50;;;;;;;;;;5073989;28;20538;-60
2023/05/07 11:15:33;;;;;;;1.40;1.30;;;;;;;;;;5074021;28;20452;-60
2023/05/07 11:18:00;;;;;;;1.80;1.70;;;;;;;;;;5073968;28;20449;-60
2023/05/07 11:20:43;;;;;;;1.80;1.70;;;;;;;;;;5073748;28;20455;-60
2023/05/07 11:23:31;;;;;;;3.30;1.63;;;;;;;;;;5073711;28;20452;-60
2023/05/07 11:26:00;;;;;;;1.83;1.50;;;;;;;;;;5073396;28;20541;-60
2023/05/07 11:28:27;;;;;;;1.63;1.53;;;;;;;;;;5073886;28;20902;-60
2023/05/07 11:30:55;;;;;;;1.80;1.70;;;;;;;;;;5073612;28;20453;-60
2023/05/07 11:33:22;;;;;;;2.20;1.67;;;;;;;;;;5073522;28;20476;-60
2023/05/07 11:35:50;;;;;;;1.70;1.60;;;;;;;;;;5073606;28;20453;-60
2023/05/07 11:38:19;;;;;;;1.87;1.77;;;;;;;;;;5073488;28;20448;-61
2023/05/07 11:40:50;;;;;;;1.80;1.70;;;;;;;;;;5073194;28;20472;-61
2023/05/07 11:43:17;;;;;;;2.73;1.70;;;;;;;;;;5073169;28;20479;-60
2023/05/07 11:45:44;;;;;;;1.60;1.40;;;;;;;;;;5073138;28;20568;-60
2023/05/07 11:48:11;;;;;;;1.30;1.20;;;;;;;;;;5073117;28;20786;-62
2023/05/07 11:50:51;;;;;;;2.30;1.93;;;;;;;;;;5072926;28;20931;-60
2023/05/07 11:53:20;;;;;;;1.30;1.20;;;;;;;;;;5073225;28;20460;-60
2023/05/07 11:55:47;;;;;;;1.50;1.40;;;;;;;;;;5073137;28;20461;-60
2023/05/07 11:58:21;;;;;;;7.83;1.53;;;;;;;;;;5072995;28;20453;-61
2023/05/07 12:00:51;;;;;;;1.40;1.30;;;;;;;;;;5073023;28;20967;-60
2023/05/07 12:03:18;;;;;;;1.60;1.50;;;;;;;;;;5072428;28;20808;-61
2023/05/07 12:05:45;;;;;;;1.40;1.30;;;;;;;;;;5072723;28;20482;-61
2023/05/07 12:08:15;;;;;;;1.73;1.50;;;;;;;;;;5072907;28;20551;-60
2023/05/07 12:10:44;;;;;;;3.23;1.60;;;;;;;;;;5072880;28;20448;-60
2023/05/07 12:13:15;;;;;;;3.00;1.20;;;;;;;;;;5072815;28;20449;-60
2023/05/07 12:15:42;;;;;;;1.80;1.67;;;;;;;;;;5073019;28;20458;-61
2023/05/07 12:18:09;;;;;;;1.87;1.77;;;;;;;;;;5072730;28;20980;-60
2023/05/07 12:20:36;;;;;;;1.57;1.47;;;;;;;;;;5072933;28;20449;-60
2023/05/07 12:23:03;;;;;;;2.00;1.20;;;;;;;;;;5072718;28;20452;-60
2023/05/07 12:25:31;;;;;;;3.77;2.37;;;;;;;;;;5073120;28;20472;-60
2023/05/07 12:28:01;;;;;;;1.50;1.40;;;;;;;;;;5072640;28;20457;-60
2023/05/07 12:30:28;;;;;;;1.50;1.40;;;;;;;;;;5072896;28;20543;-60
2023/05/07 12:32:56;;;;;;;1.97;1.17;;;;;;;;;;5072759;28;20543;-60
2023/05/07 12:35:28;;;;;;;4.10;1.13;;;;;;;;;;5072888;28;20445;-60
2023/05/07 12:37:59;;;;;;;1.30;1.20;;;;;;;;;;5073106;28;20543;-60
2023/05/07 12:40:26;;;;;;;1.37;1.27;;;;;;;;;;5072385;28;20477;-60
2023/05/07 12:42:55;;;;;;;1.97;1.17;;;;;;;;;;5072721;28;20459;-60
2023/05/07 12:45:23;;;;;;;1.20;1.10;;;;;;;;;;5072555;28;20457;-60
2023/05/07 12:47:50;;;;;;;2.63;1.03;;;;;;;;;;5072625;28;20463;-61
2023/05/07 12:50:17;;;;;;;1.40;1.10;;;;;;;;;;5072919;28;20967;-61
2023/05/07 12:52:45;;;;;;;1.40;1.10;;;;;;;;;;5072459;28;20536;-60
2023/05/07 12:55:14;;;;;;;2.37;1.33;;;;;;;;;;5072326;28;20449;-61
2023/05/07 12:57:41;;;;;;;1.50;1.40;;;;;;;;;;5072466;28;20449;-61
2023/05/07 13:00:09;;;;;;;1.40;1.30;;;;;;;;;;5072394;28;20948;-60
2023/05/07 13:02:39;;;;;;;2.07;1.23;;;;;;;;;;5072297;28;20944;-61
2023/05/07 13:05:06;;;;;;;3.37;1.40;;;;;;;;;;5072405;28;20489;-60
2023/05/07 13:07:33;;;;;;;1.30;1.20;;;;;;;;;;5072146;28;20486;-61
2023/05/07 13:09:59;;;;;;;2.23;1.67;;;;;;;;;;5072550;28;20629;-60
2023/05/07 13:12:27;;;;;;;3.27;1.43;;;;;;;;;;5072430;28;20449;-60
2023/05/07 13:14:53;;;;;;;1.53;1.43;;;;;;;;;;5072722;28;20468;-60
2023/05/07 13:17:20;;;;;;;1.50;1.40;;;;;;;;;;5076051;28;20453;-60
2023/05/07 13:19:49;;;;;;;2.40;1.47;;;;;;;;;;5075962;28;20562;-60
2023/05/07 13:22:15;;;;;;;2.13;1.40;;;;;;;;;;5075846;28;20889;-60
2023/05/07 13:24:43;;;;;;;3.43;1.50;;;;;;;;;;5076049;28;20451;-60
2023/05/07 13:27:10;;;;;;;3.57;1.50;;;;;;;;;;5075874;28;21010;-61
2023/05/07 13:29:37;;;;;;;4.50;1.30;;;;;;;;;;5075704;28;20488;-61
2023/05/07 13:32:04;;;;;;;1.60;1.50;;;;;;;;;;5075768;28;20574;-60
2023/05/07 13:34:31;;;;;;;1.87;1.20;;;;;;;;;;5075665;28;20446;-60
2023/05/07 13:36:59;;;;;;;1.40;1.30;;;;;;;;;;5075817;28;20444;-60
2023/05/07 13:39:26;;;;;;;1.80;1.70;;;;;;;;;;5075763;28;20934;-60
2023/05/07 13:41:53;;;;;;;1.30;1.10;;;;;;;;;;5075691;28;21086;-61
2023/05/07 13:44:20;;;;;;;4.30;1.30;;;;;;;;;;5075374;28;20536;-60
2023/05/07 13:46:47;;;;;;;1.87;1.70;;;;;;;;;;5075376;28;20477;-60
2023/05/07 13:49:14;;;;;;;3.63;1.60;;;;;;;;;;5075299;28;20475;-61
2023/05/07 13:51:41;;;;;;;3.83;1.37;;;;;;;;;;5075728;28;20448;-61
2023/05/07 13:54:09;;;;;;;1.50;1.20;;;;;;;;;;5075539;28;20455;-60
2023/05/07 13:56:36;;;;;;;1.60;1.50;;;;;;;;;;5075631;28;20451;-60
2023/05/07 13:59:03;;;;;;;1.90;1.60;;;;;;;;;;5075254;28;20776;-60
2023/05/07 14:01:30;;;;;;;2.07;1.50;;;;;;;;;;5075482;28;20444;-60
2023/05/07 14:03:59;;;;;;;1.60;1.50;;;;;;;;;;5075388;28;20442;-60
2023/05/07 14:06:26;;;;;;;1.47;1.20;;;;;;;;;;5075161;28;20477;-60
2023/05/07 14:08:53;;;;;;;1.57;1.47;;;;;;;;;;5075165;28;20452;-60
2023/05/07 14:11:21;;;;;;;1.40;1.30;;;;;;;;;;5075051;28;20471;-61
2023/05/07 14:13:48;;;;;;;1.30;1.20;;;;;;;;;;5075192;28;20453;-60
2023/05/07 14:16:15;;;;;;;1.60;1.30;;;;;;;;;;5074924;28;20481;-60
2023/05/07 14:18:42;;;;;;;1.77;1.67;;;;;;;;;;5075093;28;20451;-61
2023/05/07 14:21:10;;;;;;;1.43;1.33;;;;;;;;;;5074922;28;21024;-60
2023/05/07 14:23:36;;;;;;;1.30;1.20;;;;;;;;;;5075100;28;20481;-60
2023/05/07 14:26:03;;;;;;;2.67;1.50;;;;;;;;;;5074394;28;20443;-60
2023/05/07 14:28:32;;;;;;;1.73;1.20;;;;;;;;;;5074268;28;20455;-61
2023/05/07 14:30:59;;;;;;;1.67;1.30;;;;;;;;;;5074699;28;20457;-60
2023/05/07 14:33:26;;;;;;;2.10;1.20;;;;;;;;;;5074859;28;20450;-61
2023/05/07 14:35:53;;;;;;;1.37;1.27;;;;;;;;;;5074752;28;20453;-60